createdAt,value
2023-03-11T00:00:15.209Z,96701.50
2023-03-11T00:02:41.602Z,96716.72
2023-03-11T00:05:09.054Z,96703.13
2023-03-11T00:07:35.417Z,96712.06
2023-03-11T00:10:01.707Z,96739.41
2023-03-11T00:12:28.114Z,96727.25
2023-03-11T00:14:54.416Z,96729.88
2023-03-11T00:17:20.702Z,96720.78
2023-03-11T00:19:47.102Z,96733.53
2023-03-11T00:22:13.493Z,96740.00
2023-03-11T00:24:39.795Z,96751.56
2023-03-11T00:27:06.148Z,96760.25
2023-03-11T00:29:32.547Z,96765.50
2023-03-11T00:31:58.939Z,96754.78
2023-03-11T00:34:25.254Z,96772.63
2023-03-11T00:36:51.557Z,96756.00
2023-03-11T00:39:17.849Z,96768.94
2023-03-11T00:41:44.183Z,96778.06
2023-03-11T00:44:10.692Z,96771.97
2023-03-11T00:46:37.047Z,96771.38
2023-03-11T00:49:03.646Z,96787.16
2023-03-11T00:51:30.349Z,96793.03
2023-03-11T00:53:57.593Z,96795.47
2023-03-11T00:56:23.885Z,96801.31
2023-03-11T00:58:50.190Z,96806.59
2023-03-11T01:01:18.880Z,96807.16
2023-03-11T01:03:45.743Z,96812.00
2023-03-11T01:06:12.898Z,96811.22
2023-03-11T01:08:39.850Z,96819.91
2023-03-11T01:11:06.958Z,96831.00
2023-03-11T01:13:34.296Z,96825.09
2023-03-11T01:16:01.172Z,96835.38
2023-03-11T01:18:27.828Z,96828.31
2023-03-11T01:20:54.703Z,96837.81
2023-03-11T01:23:21.374Z,96836.19
2023-03-11T01:25:47.927Z,96846.09
2023-03-11T01:28:14.248Z,96842.63
2023-03-11T01:30:41.972Z,96849.06
2023-03-11T01:33:13.287Z,96850.28
2023-03-11T01:35:39.607Z,96858.97
2023-03-11T01:38:06.029Z,96868.25
2023-03-11T01:40:36.424Z,96860.19
2023-03-11T01:43:05.745Z,96853.88
2023-03-11T01:45:50.397Z,96865.81
2023-03-11T01:48:16.766Z,96863.97
2023-03-11T01:50:46.774Z,96861.31
2023-03-11T01:53:15.790Z,96855.69
2023-03-11T01:55:43.360Z,96881.53
2023-03-11T01:58:16.148Z,96870.22
2023-03-11T02:00:43.636Z,96872.66
2023-03-11T02:03:17.735Z,96868.94
2023-03-11T02:05:45.274Z,96871.16
2023-03-11T02:08:11.667Z,96877.41
2023-03-11T02:10:41.275Z,96882.91
2023-03-11T02:13:07.840Z,96879.47
2023-03-11T02:15:34.266Z,96876.59
2023-03-11T02:18:05.120Z,96876.00
2023-03-11T02:20:45.215Z,96880.41
2023-03-11T02:23:13.050Z,96878.16
2023-03-11T02:25:46.019Z,96874.25
2023-03-11T02:28:14.191Z,96867.59
2023-03-11T02:30:42.628Z,96876.72
2023-03-11T02:33:09.913Z,96880.59
2023-03-11T02:35:36.478Z,96873.31
2023-03-11T02:38:03.392Z,96859.38
2023-03-11T02:40:48.637Z,96863.94
2023-03-11T02:43:18.004Z,96868.84
2023-03-11T02:45:46.437Z,96878.09
2023-03-11T02:48:14.464Z,96870.00
2023-03-11T02:50:41.419Z,96885.78
2023-03-11T02:53:08.072Z,96889.97
2023-03-11T02:55:34.572Z,96920.47
2023-03-11T02:58:00.980Z,96921.28
2023-03-11T03:00:27.613Z,96917.44
2023-03-11T03:02:54.024Z,96912.78
2023-03-11T03:05:22.047Z,96910.09
2023-03-11T03:07:49.642Z,96934.16
2023-03-11T03:10:17.095Z,96950.16
2023-03-11T03:12:43.493Z,96940.03
2023-03-11T03:15:11.203Z,96934.22
2023-03-11T03:17:38.372Z,96942.03
2023-03-11T03:20:05.611Z,96960.47
2023-03-11T03:22:32.015Z,96943.28
2023-03-11T03:24:58.310Z,96937.66
2023-03-11T03:27:24.685Z,96939.84
2023-03-11T03:29:51.001Z,96953.47
2023-03-11T03:32:17.333Z,96936.91
2023-03-11T03:34:43.652Z,96955.09
2023-03-11T03:37:09.993Z,96962.53
2023-03-11T03:39:36.423Z,96949.22
2023-03-11T03:42:02.742Z,96957.47
2023-03-11T03:44:29.072Z,96966.44
2023-03-11T03:46:55.359Z,96970.03
2023-03-11T03:49:21.889Z,96981.63
2023-03-11T03:51:48.184Z,96969.06
2023-03-11T03:54:15.146Z,96969.41
2023-03-11T03:56:41.479Z,96975.94
2023-03-11T03:59:07.864Z,96967.59
2023-03-11T04:01:34.153Z,96972.97
2023-03-11T04:04:00.531Z,96974.97
2023-03-11T04:06:27.940Z,96978.84
2023-03-11T04:08:54.862Z,96984.50
2023-03-11T04:11:22.379Z,97002.13
2023-03-11T04:13:49.445Z,96996.47
2023-03-11T04:16:19.803Z,96995.19
2023-03-11T04:18:46.731Z,97003.69
2023-03-11T04:21:13.181Z,97001.31
2023-03-11T04:23:39.799Z,97002.50
2023-03-11T04:26:06.254Z,97010.13
2023-03-11T04:28:33.024Z,97011.50
2023-03-11T04:30:59.360Z,97008.06
2023-03-11T04:33:25.674Z,97017.56
2023-03-11T04:35:52.008Z,97020.00
2023-03-11T04:38:18.518Z,97021.81
2023-03-11T04:40:44.865Z,97017.56
2023-03-11T04:43:11.148Z,97025.31
2023-03-11T04:45:41.742Z,97022.44
2023-03-11T04:48:08.857Z,97032.06
2023-03-11T04:50:35.311Z,97017.47
2023-03-11T04:53:01.852Z,97023.91
2023-03-11T04:55:28.113Z,97019.03
2023-03-11T04:57:54.434Z,97019.47
2023-03-11T05:00:21.072Z,97013.78
2023-03-11T05:02:47.498Z,97020.56
2023-03-11T05:05:13.831Z,97023.13
2023-03-11T05:07:40.134Z,97025.38
2023-03-11T05:10:06.947Z,97034.88
2023-03-11T05:12:33.507Z,97029.63
2023-03-11T05:14:59.915Z,97044.38
2023-03-11T05:17:26.226Z,97052.50
2023-03-11T05:19:53.247Z,97060.22
2023-03-11T05:22:20.482Z,97070.16
2023-03-11T05:24:47.014Z,97067.53
2023-03-11T05:27:13.973Z,97064.81
2023-03-11T05:29:40.392Z,97049.69
2023-03-11T05:32:06.924Z,97051.34
2023-03-11T05:34:33.323Z,97055.69
2023-03-11T05:37:02.689Z,97054.06
2023-03-11T05:39:29.538Z,97074.19
2023-03-11T05:41:55.936Z,97065.69
2023-03-11T05:44:22.762Z,97079.06
2023-03-11T05:46:49.253Z,97079.44
2023-03-11T05:49:15.699Z,97083.50
2023-03-11T05:51:42.074Z,97089.00
2023-03-11T05:54:08.346Z,97084.56
2023-03-11T05:56:34.954Z,97102.56
2023-03-11T05:59:01.230Z,97096.59
2023-03-11T06:01:27.537Z,97089.34
2023-03-11T06:03:53.940Z,97102.94
2023-03-11T06:06:20.264Z,97093.31
2023-03-11T06:08:46.633Z,97090.81
2023-03-11T06:11:13.034Z,97106.63
2023-03-11T06:13:39.354Z,97103.00
2023-03-11T06:16:06.383Z,97111.25
2023-03-11T06:18:32.711Z,97121.94
2023-03-11T06:21:00.609Z,97124.72
2023-03-11T06:23:26.867Z,97129.72
2023-03-11T06:25:59.906Z,97133.34
2023-03-11T06:28:26.943Z,97132.69
2023-03-11T06:30:53.449Z,97127.91
2023-03-11T06:33:19.718Z,97140.22
2023-03-11T06:35:56.287Z,97143.28
2023-03-11T06:38:22.594Z,97146.16
2023-03-11T06:40:48.958Z,97159.66
2023-03-11T06:43:15.564Z,97158.03
2023-03-11T06:45:41.925Z,97168.81
2023-03-11T06:48:08.204Z,97164.09
2023-03-11T06:50:34.603Z,97168.00
2023-03-11T06:53:00.965Z,97173.78
2023-03-11T06:55:27.316Z,97167.66
2023-03-11T06:57:53.574Z,97177.41
2023-03-11T07:00:20.136Z,97170.00
2023-03-11T07:02:46.422Z,97186.84
2023-03-11T07:05:12.685Z,97185.38
2023-03-11T07:07:38.985Z,97188.16
2023-03-11T07:10:05.978Z,97192.88
2023-03-11T07:12:32.548Z,97198.22
2023-03-11T07:14:59.689Z,97199.88
2023-03-11T07:17:26.614Z,97202.75
2023-03-11T07:19:53.400Z,97203.56
2023-03-11T07:22:20.934Z,97208.09
2023-03-11T07:24:48.635Z,97211.34
2023-03-11T07:27:15.523Z,97203.19
2023-03-11T07:29:41.954Z,97206.88
2023-03-11T07:32:08.582Z,97209.25
2023-03-11T07:34:35.478Z,97216.03
2023-03-11T07:37:01.947Z,97216.47
2023-03-11T07:39:28.328Z,97232.88
2023-03-11T07:41:54.637Z,97242.03
2023-03-11T07:44:21.040Z,97242.59
2023-03-11T07:46:47.337Z,97247.66
2023-03-11T07:49:14.039Z,97250.91
2023-03-11T07:51:40.539Z,97254.00
2023-03-11T07:54:07.092Z,97262.34
2023-03-11T07:56:34.959Z,97258.66
2023-03-11T07:59:03.571Z,97265.34
2023-03-11T08:01:31.450Z,97262.91
2023-03-11T08:03:57.787Z,97263.34
2023-03-11T08:06:30.051Z,97281.72
2023-03-11T08:11:31.596Z,97282.31
2023-03-11T08:13:58.341Z,97287.66
2023-03-11T08:16:26.193Z,97280.13
2023-03-11T08:18:52.788Z,97291.47
2023-03-11T08:21:21.750Z,97295.44
2023-03-11T08:23:48.708Z,97292.53
2023-03-11T08:26:17.960Z,97299.31
2023-03-11T08:28:44.383Z,97294.25
2023-03-11T08:31:15.070Z,97313.72
2023-03-11T08:33:42.181Z,97308.47
2023-03-11T08:36:08.743Z,97323.88
2023-03-11T08:38:35.151Z,97314.34
2023-03-11T08:41:01.777Z,97328.38
2023-03-11T08:43:28.302Z,97330.50
2023-03-11T08:45:54.739Z,97331.41
2023-03-11T08:48:21.240Z,97330.72
2023-03-11T08:50:54.199Z,97342.13
2023-03-11T08:53:21.895Z,97333.84
2023-03-11T08:55:49.904Z,97336.44
2023-03-11T08:58:16.254Z,97351.50
2023-03-11T09:00:42.673Z,97345.41
2023-03-11T09:03:09.051Z,97330.53
2023-03-11T09:05:35.925Z,97343.09
2023-03-11T09:08:05.199Z,97345.78
2023-03-11T09:10:32.103Z,97346.06
2023-03-11T09:12:58.385Z,97347.84
2023-03-11T09:15:24.738Z,97347.59
2023-03-11T09:17:51.114Z,97351.13
2023-03-11T09:20:17.434Z,97351.38
2023-03-11T09:22:43.830Z,97355.25
2023-03-11T09:25:12.442Z,97353.69
2023-03-11T09:27:38.936Z,97345.00
2023-03-11T09:30:05.828Z,97358.94
2023-03-11T09:32:32.368Z,97356.75
2023-03-11T09:34:58.656Z,97359.31
2023-03-11T09:37:25.011Z,97356.28
2023-03-11T09:39:51.386Z,97362.16
2023-03-11T09:42:27.609Z,97360.84
2023-03-11T09:45:04.703Z,97367.88
2023-03-11T09:48:01.350Z,97355.53
2023-03-11T09:50:32.712Z,97376.09
2023-03-11T09:53:22.566Z,97374.69
2023-03-11T09:55:53.914Z,97374.72
2023-03-11T09:58:36.155Z,97377.56
2023-03-11T10:01:10.423Z,97369.41
2023-03-11T10:03:39.666Z,97368.53
2023-03-11T10:06:19.445Z,97385.19
2023-03-11T10:08:52.548Z,97399.28
2023-03-11T10:11:32.420Z,97407.66
2023-03-11T10:14:07.750Z,97408.56
2023-03-11T10:16:49.057Z,97404.84
2023-03-11T10:19:19.848Z,97414.78
2023-03-11T10:22:07.055Z,97406.97
2023-03-11T10:24:40.263Z,97398.88
2023-03-11T10:27:15.971Z,97404.84
2023-03-11T10:29:59.949Z,97408.09
2023-03-11T10:32:39.349Z,97403.44
2023-03-11T10:35:21.610Z,97406.38
2023-03-11T10:37:59.258Z,97417.97
2023-03-11T10:40:35.867Z,97406.19
2023-03-11T10:43:18.773Z,97400.09
2023-03-11T10:45:46.769Z,97415.13
2023-03-11T10:48:18.608Z,97400.59
2023-03-11T10:50:54.217Z,97411.19
2023-03-11T10:53:21.029Z,97409.22
2023-03-11T10:55:56.544Z,97397.13
2023-03-11T10:58:29.205Z,97403.03
2023-03-11T11:01:14.424Z,97409.44
2023-03-11T11:03:47.023Z,97412.44
2023-03-11T11:06:24.717Z,97402.16
2023-03-11T11:09:05.192Z,97401.63
2023-03-11T11:11:31.611Z,97405.91
2023-03-11T11:13:59.335Z,97404.50
2023-03-11T11:16:26.517Z,97416.13
2023-03-11T11:19:14.063Z,97412.03
2023-03-11T11:21:48.929Z,97416.03
2023-03-11T11:24:24.412Z,97400.03
2023-03-11T11:27:15.817Z,97394.94
2023-03-11T11:29:43.004Z,97401.25
2023-03-11T11:32:15.133Z,97401.69
2023-03-11T11:34:41.911Z,97408.78
2023-03-11T11:37:13.260Z,97409.78
2023-03-11T11:39:50.304Z,97415.22
2023-03-11T11:42:18.516Z,97415.22
2023-03-11T11:44:48.284Z,97419.44
2023-03-11T11:47:23.895Z,97424.72
2023-03-11T11:49:56.058Z,97414.44
2023-03-11T11:52:34.821Z,97412.69
2023-03-11T11:55:06.459Z,97407.09
2023-03-11T11:57:32.926Z,97402.97
2023-03-11T11:59:59.613Z,97411.91
2023-03-11T12:02:53.649Z,97405.19
2023-03-11T12:05:30.553Z,97412.72
2023-03-11T12:08:10.495Z,97398.34
2023-03-11T12:10:39.849Z,97397.34
2023-03-11T12:13:34.075Z,97404.09
2023-03-11T12:16:13.865Z,97406.31
2023-03-11T12:18:56.394Z,97400.97
2023-03-11T12:21:43.430Z,97397.16
2023-03-11T12:24:30.079Z,97401.66
2023-03-11T12:27:02.404Z,97411.03
2023-03-11T12:29:34.148Z,97400.44
2023-03-11T12:32:02.202Z,97393.91
2023-03-11T12:34:33.933Z,97404.25
2023-03-11T12:37:01.422Z,97401.97
2023-03-11T12:39:31.225Z,97419.31
2023-03-11T12:42:19.205Z,97415.28
2023-03-11T12:44:46.716Z,97418.00
2023-03-11T12:47:12.997Z,97414.50
2023-03-11T12:49:41.798Z,97423.50
2023-03-11T12:52:11.268Z,97418.34
2023-03-11T12:54:45.650Z,97425.59
2023-03-11T12:57:17.988Z,97422.72
2023-03-11T13:00:03.093Z,97419.97
2023-03-11T13:03:07.071Z,97420.47
2023-03-11T13:05:52.012Z,97423.53
2023-03-11T13:08:48.989Z,97422.88
2023-03-11T13:11:38.414Z,97422.03
2023-03-11T13:14:26.409Z,97422.41
2023-03-11T13:16:52.704Z,97426.06
2023-03-11T13:19:34.402Z,97426.28
2023-03-11T13:22:02.781Z,97432.16
2023-03-11T13:24:29.018Z,97440.09
2023-03-11T13:27:03.370Z,97446.22
2023-03-11T13:29:53.161Z,97442.13
2023-03-11T13:32:41.617Z,97447.38
2023-03-11T13:35:35.734Z,97445.69
2023-03-11T13:38:24.459Z,97453.94
2023-03-11T13:40:52.231Z,97457.00
2023-03-11T13:43:22.845Z,97460.16
2023-03-11T13:45:54.749Z,97473.38
2023-03-11T13:48:28.538Z,97464.00
2023-03-11T13:51:06.325Z,97468.69
2023-03-11T13:53:39.370Z,97473.03
2023-03-11T13:56:06.146Z,97476.72
2023-03-11T13:58:32.431Z,97480.91
2023-03-11T14:01:00.912Z,97483.19
2023-03-11T14:03:33.721Z,97481.63
2023-03-11T14:06:06.489Z,97478.75
2023-03-11T14:08:35.060Z,97480.56
2023-03-11T14:11:17.238Z,97478.59
2023-03-11T14:13:45.919Z,97484.63
2023-03-11T14:16:21.315Z,97485.34
2023-03-11T14:19:03.359Z,97475.78
2023-03-11T14:21:29.695Z,97484.78
2023-03-11T14:23:56.480Z,97490.03
2023-03-11T14:26:27.696Z,97486.38
2023-03-11T14:28:57.091Z,97485.94
2023-03-11T14:31:35.547Z,97482.19
2023-03-11T14:34:15.173Z,97485.97
2023-03-11T14:36:47.290Z,97492.81
2023-03-11T14:39:27.654Z,97483.22
2023-03-11T14:42:04.000Z,97480.06
2023-03-11T14:44:33.633Z,97485.00
2023-03-11T14:47:09.592Z,97481.69
2023-03-11T14:49:36.400Z,97488.84
2023-03-11T14:52:08.619Z,97488.38
2023-03-11T14:54:36.549Z,97492.25
2023-03-11T14:57:08.817Z,97497.09
2023-03-11T14:59:37.073Z,97505.38
2023-03-11T15:02:38.123Z,97506.47
2023-03-11T15:05:14.198Z,97506.53
2023-03-11T15:07:40.528Z,97506.88
2023-03-11T15:10:09.803Z,97503.59
2023-03-11T15:12:41.283Z,97509.44
2023-03-11T15:15:26.840Z,97510.69
2023-03-11T15:17:57.925Z,97519.81
2023-03-11T15:20:31.338Z,97528.78
2023-03-11T15:23:01.576Z,97529.25
2023-03-11T15:25:30.851Z,97535.50
2023-03-11T15:27:57.614Z,97528.97
2023-03-11T15:30:25.733Z,97523.84
2023-03-11T15:32:52.289Z,97522.53
2023-03-11T15:35:24.511Z,97517.72
2023-03-11T15:38:11.569Z,97521.75
2023-03-11T15:40:45.249Z,97520.06
2023-03-11T15:43:14.908Z,97522.59
2023-03-11T15:45:41.892Z,97519.78
2023-03-11T15:48:10.534Z,97518.97
2023-03-11T15:50:52.878Z,97528.06
2023-03-11T15:53:21.735Z,97525.38
2023-03-11T15:55:48.263Z,97534.44
2023-03-11T15:58:16.689Z,97537.09
2023-03-11T16:00:56.872Z,97538.97
2023-03-11T16:03:23.972Z,97549.44
2023-03-11T16:05:50.675Z,97565.06
2023-03-11T16:08:16.958Z,97561.03
2023-03-11T16:10:43.666Z,97558.03
2023-03-11T16:13:12.636Z,97560.84
2023-03-11T16:15:39.051Z,97564.78
2023-03-11T16:18:07.040Z,97568.91
2023-03-11T16:20:40.295Z,97563.44
2023-03-11T16:23:10.309Z,97554.28
2023-03-11T16:25:39.665Z,97544.75
2023-03-11T16:28:06.917Z,97545.19
2023-03-11T16:30:34.731Z,97543.75
2023-03-11T16:33:03.947Z,97545.75
2023-03-11T16:35:31.129Z,97547.75
2023-03-11T16:37:57.453Z,97549.44
2023-03-11T16:40:26.152Z,97548.94
2023-03-11T16:42:57.511Z,97551.25
2023-03-11T16:45:23.942Z,97557.25
2023-03-11T16:47:50.377Z,97560.69
2023-03-11T16:50:16.910Z,97566.28
2023-03-11T16:52:43.189Z,97566.66
2023-03-11T16:55:09.742Z,97575.31
2023-03-11T16:57:36.146Z,97577.69
2023-03-11T17:00:03.031Z,97584.38
2023-03-11T17:02:29.403Z,97584.66
2023-03-11T17:04:55.992Z,97589.47
2023-03-11T17:07:22.403Z,97580.75
2023-03-11T17:09:48.890Z,97585.84
2023-03-11T17:12:15.243Z,97593.28
2023-03-11T17:14:41.580Z,97592.66
2023-03-11T17:17:07.955Z,97597.28
2023-03-11T17:19:34.284Z,97607.28
2023-03-11T17:22:00.672Z,97619.91
2023-03-11T17:24:26.976Z,97622.25
2023-03-11T17:26:53.272Z,97629.41
2023-03-11T17:29:19.549Z,97631.78
2023-03-11T17:31:45.965Z,97631.78
2023-03-11T17:34:12.331Z,97635.06
2023-03-11T17:36:38.674Z,97629.69
2023-03-11T17:39:05.081Z,97633.59
2023-03-11T17:41:31.499Z,97634.41
2023-03-11T17:43:57.799Z,97644.59
2023-03-11T17:46:24.322Z,97643.94
2023-03-11T17:48:51.100Z,97654.31
2023-03-11T17:51:20.436Z,97655.75
2023-03-11T17:53:48.364Z,97653.94
2023-03-11T17:56:17.400Z,97652.31
2023-03-11T17:58:44.579Z,97663.50
2023-03-11T18:01:15.032Z,97662.13
2023-03-11T18:03:42.159Z,97662.97
2023-03-11T18:06:09.472Z,97670.84
2023-03-11T18:08:36.635Z,97668.59
2023-03-11T18:11:06.260Z,97678.63
2023-03-11T18:13:33.815Z,97684.56
2023-03-11T18:16:06.919Z,97686.44
2023-03-11T18:18:34.934Z,97694.25
2023-03-11T18:21:07.013Z,97686.34
2023-03-11T18:23:35.424Z,97690.09
2023-03-11T18:26:04.210Z,97693.34
2023-03-11T18:28:30.592Z,97696.97
2023-03-11T18:30:56.997Z,97698.97
2023-03-11T18:33:24.341Z,97692.06
2023-03-11T18:35:50.805Z,97686.09
2023-03-11T18:38:17.144Z,97690.03
2023-03-11T18:40:43.496Z,97697.22
2023-03-11T18:43:12.553Z,97694.94
2023-03-11T18:45:39.850Z,97697.75
2023-03-11T18:48:06.309Z,97701.44
2023-03-11T18:50:32.631Z,97692.59
2023-03-11T18:52:58.969Z,97713.19
2023-03-11T18:55:25.326Z,97712.91
2023-03-11T18:57:51.614Z,97712.63
2023-03-11T19:00:18.367Z,97708.38
2023-03-11T19:02:44.762Z,97708.28
2023-03-11T19:05:11.197Z,97710.78
2023-03-11T19:07:37.604Z,97705.56
2023-03-11T19:10:04.294Z,97714.31
2023-03-11T19:12:30.735Z,97711.41
2023-03-11T19:14:57.036Z,97714.06
2023-03-11T19:17:23.446Z,97713.47
2023-03-11T19:19:49.797Z,97718.28
2023-03-11T19:22:16.112Z,97715.03
2023-03-11T19:24:42.433Z,97714.25
2023-03-11T19:27:08.732Z,97714.09
2023-03-11T19:29:35.172Z,97716.88
2023-03-11T19:32:03.474Z,97717.88
2023-03-11T19:34:29.961Z,97710.66
2023-03-11T19:36:56.275Z,97711.34
2023-03-11T19:39:22.584Z,97715.31
2023-03-11T19:41:48.889Z,97708.75
2023-03-11T19:44:15.425Z,97717.28
2023-03-11T19:46:41.814Z,97717.97
2023-03-11T19:49:08.266Z,97712.56
2023-03-11T19:51:48.481Z,97717.50
2023-03-11T19:54:16.460Z,97714.88
2023-03-11T19:56:42.931Z,97716.34
2023-03-11T19:59:09.236Z,97715.03
2023-03-11T20:01:35.646Z,97721.91
2023-03-11T20:04:01.970Z,97722.56
2023-03-11T20:06:28.406Z,97728.31
2023-03-11T20:08:54.741Z,97726.69
2023-03-11T20:11:21.755Z,97733.72
2023-03-11T20:13:48.133Z,97738.31
2023-03-11T20:16:18.755Z,97740.78
2023-03-11T20:18:48.811Z,97743.25
2023-03-11T20:21:15.198Z,97743.91
2023-03-11T20:23:41.616Z,97745.53
2023-03-11T20:26:13.819Z,97751.59
2023-03-11T20:28:40.791Z,97761.94
2023-03-11T20:31:15.864Z,97756.34
2023-03-11T20:33:42.437Z,97757.34
2023-03-11T20:36:12.869Z,97757.34
2023-03-11T20:38:39.619Z,97753.06
2023-03-11T20:41:06.364Z,97754.38
2023-03-11T20:43:33.693Z,97758.81
2023-03-11T20:46:00.815Z,97756.19
2023-03-11T20:48:28.215Z,97760.44
2023-03-11T20:50:54.610Z,97759.31
2023-03-11T20:53:21.029Z,97754.88
2023-03-11T20:55:47.401Z,97752.25
2023-03-11T20:58:13.792Z,97755.38
2023-03-11T21:00:40.137Z,97761.25
2023-03-11T21:03:06.504Z,97754.72
2023-03-11T21:05:37.043Z,97756.22
2023-03-11T21:08:04.146Z,97753.59
2023-03-11T21:10:31.058Z,97757.34
2023-03-11T21:12:57.492Z,97756.03
2023-03-11T21:15:24.072Z,97759.63
2023-03-11T21:17:50.450Z,97764.22
2023-03-11T21:20:17.028Z,97772.59
2023-03-11T21:22:43.473Z,97765.53
2023-03-11T21:25:09.796Z,97760.13
2023-03-11T21:27:36.178Z,97760.59
2023-03-11T21:30:02.502Z,97760.09
2023-03-11T21:32:29.007Z,97764.03
2023-03-11T21:34:57.633Z,97762.06
2023-03-11T21:37:24.492Z,97768.63
2023-03-11T21:39:51.123Z,97779.38
2023-03-11T21:42:18.268Z,97781.69
2023-03-11T21:44:44.701Z,97783.47
2023-03-11T21:47:12.246Z,97784.09
2023-03-11T21:49:38.535Z,97789.97
2023-03-11T21:52:06.586Z,97774.88
2023-03-11T21:54:33.065Z,97779.63
2023-03-11T21:56:59.411Z,97781.75
2023-03-11T21:59:26.106Z,97776.31
2023-03-11T22:01:52.843Z,97778.56
2023-03-11T22:04:19.388Z,97774.47
2023-03-11T22:06:45.816Z,97768.88
2023-03-11T22:09:12.284Z,97771.16
2023-03-11T22:11:38.619Z,97776.03
2023-03-11T22:14:04.961Z,97770.44
2023-03-11T22:16:31.502Z,97771.56
2023-03-11T22:18:57.862Z,97772.69
2023-03-11T22:21:24.389Z,97780.19
2023-03-11T22:23:50.889Z,97784.13
2023-03-11T22:26:17.533Z,97785.91
2023-03-11T22:28:43.833Z,97797.78
2023-03-11T22:31:12.883Z,97796.47
2023-03-11T22:33:39.759Z,97803.81
2023-03-11T22:36:07.067Z,97810.16
2023-03-11T22:38:33.503Z,97809.00
2023-03-11T22:40:59.998Z,97820.59
2023-03-11T22:43:27.012Z,97818.28
2023-03-11T22:45:53.486Z,97803.56
2023-03-11T22:48:19.843Z,97814.03
2023-03-11T22:50:46.136Z,97800.41
2023-03-11T22:53:13.033Z,97805.25
2023-03-11T22:55:40.438Z,97802.13
2023-03-11T22:58:07.270Z,97805.72
2023-03-11T23:00:33.660Z,97807.69
2023-03-11T23:02:59.942Z,97810.59
2023-03-11T23:05:26.248Z,97813.66
2023-03-11T23:07:52.575Z,97818.34
2023-03-11T23:10:21.267Z,97817.00
2023-03-11T23:12:48.235Z,97812.53
2023-03-11T23:15:17.892Z,97822.34
2023-03-11T23:17:44.776Z,97821.81
2023-03-11T23:20:15.714Z,97823.91
2023-03-11T23:22:42.363Z,97826.28
2023-03-11T23:25:12.420Z,97822.31
2023-03-11T23:27:38.742Z,97822.03
2023-03-11T23:30:06.243Z,97827.41
2023-03-11T23:32:32.866Z,97827.69
2023-03-11T23:34:59.300Z,97819.47
2023-03-11T23:37:25.614Z,97814.56
2023-03-11T23:39:51.950Z,97819.25
2023-03-11T23:42:25.508Z,97826.41
2023-03-11T23:44:53.098Z,97834.13
2023-03-11T23:47:19.568Z,97830.53
2023-03-11T23:49:45.872Z,97825.16
2023-03-11T23:52:12.207Z,97831.06
2023-03-11T23:54:38.543Z,97826.50
2023-03-11T23:57:04.835Z,97833.53
2023-03-11T23:59:31.161Z,97841.00
